Time;durP1;ratioP1;P1;durP2;ratioP2;P2;SDS_P1;SDS_P2;PMS_P1;PMS_P2;Temp;Humidity;BMP_temperature;BMP_pressure;BME280_temperature;BME280_humidity;BME280_pressure;Samples;Min_cycle;Max_cycle;Signal;HPM_P1;HPM_P2
2023/12/24 00:01:12;;;;;;;12.45;1.30;;;10.60;99.90;;;;;;5033941;28;20542;-79
2023/12/24 00:03:38;;;;;;;7.90;0.77;;;10.70;99.90;;;;;;5034805;28;20022;-78
2023/12/24 00:06:04;;;;;;;4.82;0.70;;;10.70;99.90;;;;;;5033522;28;20057;-78
2023/12/24 00:08:30;;;;;;;9.30;1.13;;;10.70;99.90;;;;;;5034950;28;20176;-78
2023/12/24 00:10:56;;;;;;;9.40;0.95;;;10.70;99.90;;;;;;5033785;28;20069;-78
2023/12/24 00:13:22;;;;;;;5.03;0.80;;;10.70;99.90;;;;;;5034815;28;20061;-79
2023/12/24 00:15:48;;;;;;;4.68;0.50;;;10.70;99.90;;;;;;5034574;28;20402;-79
2023/12/24 00:18:13;;;;;;;6.57;0.80;;;10.70;99.90;;;;;;5035203;28;20029;-79
2023/12/24 00:20:39;;;;;;;6.05;0.68;;;10.70;99.90;;;;;;5034767;28;20128;-79
2023/12/24 00:23:09;;;;;;;11.18;1.40;;;10.70;99.90;;;;;;5033705;28;20029;-79
2023/12/24 00:25:36;;;;;;;6.45;0.73;;;10.70;99.90;;;;;;5034669;28;20029;-79
2023/12/24 00:28:01;;;;;;;8.30;0.52;;;10.70;99.90;;;;;;5033306;28;20037;-79
2023/12/24 00:30:28;;;;;;;5.40;0.63;;;10.70;99.90;;;;;;5033932;28;20037;-79
2023/12/24 00:32:54;;;;;;;3.70;0.50;;;10.70;99.90;;;;;;5034040;28;20064;-79
2023/12/24 00:35:20;;;;;;;7.25;1.40;;;10.70;99.90;;;;;;5035136;28;20090;-79
2023/12/24 00:37:46;;;;;;;6.88;0.70;;;10.80;99.90;;;;;;5034962;28;20095;-79
2023/12/24 00:40:12;;;;;;;7.78;0.60;;;10.70;99.90;;;;;;5034706;28;20030;-79
2023/12/24 00:42:39;;;;;;;4.97;1.10;;;10.80;99.90;;;;;;5034548;28;20387;-78
2023/12/24 00:45:05;;;;;;;5.47;0.60;;;10.70;99.90;;;;;;5034725;28;20029;-78
2023/12/24 00:47:31;;;;;;;6.68;0.85;;;10.70;99.90;;;;;;5032822;28;20048;-78
2023/12/24 00:49:56;;;;;;;9.50;0.60;;;10.70;99.90;;;;;;5035778;28;20037;-78
2023/12/24 00:52:22;;;;;;;7.20;0.80;;;10.80;99.90;;;;;;5035224;28;20037;-78
2023/12/24 00:54:48;;;;;;;4.43;0.45;;;10.80;99.90;;;;;;5034167;28;20053;-78
2023/12/24 00:57:14;;;;;;;8.48;1.10;;;10.80;99.90;;;;;;5034104;28;20060;-79
2023/12/24 00:59:40;;;;;;;6.03;0.50;;;10.80;99.90;;;;;;5032820;28;20076;-78
2023/12/24 01:02:05;;;;;;;4.90;0.68;;;10.80;99.90;;;;;;5034252;28;20025;-78
2023/12/24 01:04:31;;;;;;;3.30;0.32;;;10.80;99.90;;;;;;5033444;28;20379;-78
2023/12/24 01:06:57;;;;;;;4.05;0.50;;;10.70;99.90;;;;;;5034753;28;20045;-79
2023/12/24 01:09:23;;;;;;;5.10;0.50;;;10.70;99.90;;;;;;5034257;28;20030;-79
2023/12/24 01:11:49;;;;;;;5.93;0.80;;;10.70;99.90;;;;;;5033531;28;20539;-79
2023/12/24 01:14:15;;;;;;;7.32;1.08;;;10.70;99.90;;;;;;5034152;28;20459;-78
2023/12/24 01:16:41;;;;;;;3.90;0.50;;;10.70;99.90;;;;;;5035850;28;20041;-79
2023/12/24 01:19:07;;;;;;;10.00;0.73;;;10.80;99.90;;;;;;5034883;28;20041;-79
2023/12/24 01:21:33;;;;;;;3.83;0.47;;;10.70;99.90;;;;;;5034210;28;20021;-77
2023/12/24 01:23:58;;;;;;;6.75;0.80;;;10.70;99.90;;;;;;5034096;28;20108;-78
2023/12/24 01:26:24;;;;;;;3.05;0.50;;;10.70;99.90;;;;;;5033126;28;20072;-78
2023/12/24 01:28:53;;;;;;;5.55;0.55;;;10.70;99.90;;;;;;5033599;28;20033;-78
2023/12/24 01:31:19;;;;;;;6.38;1.10;;;10.70;99.90;;;;;;5033184;28;20033;-79
2023/12/24 01:33:45;;;;;;;7.82;1.58;;;10.70;99.90;;;;;;5033517;28;20052;-78
2023/12/24 01:36:10;;;;;;;6.40;0.60;;;10.70;99.90;;;;;;5033017;28;20037;-79
2023/12/24 01:38:36;;;;;;;10.25;1.35;;;10.70;99.90;;;;;;5032884;28;20037;-78
2023/12/24 01:41:01;;;;;;;9.80;0.70;;;10.70;99.90;;;;;;5032905;28;20033;-78
2023/12/24 01:43:27;;;;;;;6.90;0.52;;;10.70;99.90;;;;;;5033243;28;20026;-78
2023/12/24 01:45:54;;;;;;;3.78;0.50;;;10.70;99.90;;;;;;5015895;28;20371;-78
2023/12/24 01:48:21;;;;;;;7.32;1.13;;;10.70;99.90;;;;;;5031968;28;20040;-79
2023/12/24 01:50:48;;;;;;;7.68;1.38;;;10.70;99.90;;;;;;5032904;28;20518;-78
2023/12/24 01:53:16;;;;;;;5.80;1.00;;;10.70;99.90;;;;;;5033498;28;20033;-78
2023/12/24 01:55:42;;;;;;;6.53;0.82;;;10.60;99.90;;;;;;5032850;28;20360;-78
2023/12/24 01:58:08;;;;;;;6.63;0.75;;;10.60;99.90;;;;;;5032898;28;20112;-79
2023/12/24 02:00:34;;;;;;;4.88;0.85;;;10.60;99.90;;;;;;5033128;28;20417;-80
2023/12/24 02:03:02;;;;;;;6.28;1.25;;;10.50;99.90;;;;;;5031119;28;20120;-79
2023/12/24 02:05:28;;;;;;;4.97;1.20;;;10.50;99.90;;;;;;5032214;28;20040;-80
2023/12/24 02:07:56;;;;;;;5.93;0.88;;;10.50;99.90;;;;;;5031854;28;20148;-80
2023/12/24 02:10:22;;;;;;;5.15;1.00;;;10.50;99.90;;;;;;5031288;28;20030;-79
2023/12/24 02:12:49;;;;;;;8.32;1.30;;;10.40;99.90;;;;;;5032441;28;20095;-79
2023/12/24 02:15:15;;;;;;;7.20;1.33;;;10.40;99.90;;;;;;5032598;28;20481;-80
2023/12/24 02:17:43;;;;;;;6.68;0.80;;;10.40;99.90;;;;;;5031553;28;20038;-80
2023/12/24 02:20:10;;;;;;;8.60;1.20;;;10.30;99.90;;;;;;5033006;28;20045;-81
2023/12/24 02:22:35;;;;;;;8.10;1.25;;;10.30;99.90;;;;;;5033138;28;20028;-82
2023/12/24 02:25:02;;;;;;;6.65;1.20;;;10.30;99.90;;;;;;5034499;28;20030;-80
2023/12/24 02:27:51;;;;;;;9.30;1.63;;;10.30;99.90;;;;;;5035093;28;20053;-80
2023/12/24 02:30:25;;;;;;;7.03;1.23;;;10.20;99.90;;;;;;5034785;28;20022;-82
2023/12/24 02:32:54;;;;;;;5.82;1.38;;;10.20;99.90;;;;;;5034118;28;20033;-81
2023/12/24 02:35:21;;;;;;;14.02;2.10;;;10.20;99.90;;;;;;5035748;28;20111;-82
2023/12/24 02:37:47;;;;;;;9.80;1.90;;;10.20;99.90;;;;;;5035455;28;20057;-81
2023/12/24 02:40:12;;;;;;;7.43;2.05;;;10.20;99.90;;;;;;5034380;28;20048;-81
2023/12/24 02:42:38;;;;;;;12.40;2.97;;;10.20;99.90;;;;;;5035406;28;20100;-80
2023/12/24 02:45:04;;;;;;;11.18;3.10;;;10.10;99.90;;;;;;5037050;28;20092;-81
2023/12/24 02:47:30;;;;;;;11.20;2.80;;;10.20;99.90;;;;;;5037584;28;20080;-79
2023/12/24 02:49:56;;;;;;;7.80;2.97;;;10.20;99.90;;;;;;5039891;28;20038;-81
2023/12/24 02:52:21;;;;;;;8.70;3.15;;;10.20;99.90;;;;;;5035336;28;20108;-79
2023/12/24 02:54:47;;;;;;;11.30;3.13;;;10.20;99.90;;;;;;5035865;28;20029;-80
2023/12/24 02:57:12;;;;;;;8.05;3.22;;;10.20;99.90;;;;;;5036856;28;20091;-80
2023/12/24 02:59:38;;;;;;;10.90;3.47;;;10.20;99.90;;;;;;5035740;28;20034;-80
2023/12/24 03:02:04;;;;;;;14.20;3.60;;;10.20;99.90;;;;;;5037371;28;20033;-80
2023/12/24 03:04:29;;;;;;;8.77;3.72;;;10.20;99.90;;;;;;5039700;28;20029;-80
2023/12/24 03:06:55;;;;;;;11.27;4.03;;;10.20;99.90;;;;;;5039199;28;20050;-80
2023/12/24 03:09:20;;;;;;;11.68;5.20;;;10.10;99.90;;;;;;5038734;28;20401;-81
2023/12/24 03:11:46;;;;;;;14.82;5.55;;;10.20;99.90;;;;;;5037361;28;20037;-79
2023/12/24 03:14:12;;;;;;;12.00;4.68;;;10.20;99.90;;;;;;5044799;28;20033;-80
2023/12/24 03:16:37;;;;;;;14.02;5.07;;;10.20;99.90;;;;;;5036578;28;20017;-77
2023/12/24 03:19:03;;;;;;;12.88;5.13;;;10.20;99.90;;;;;;5051081;28;20419;-79
2023/12/24 03:21:29;;;;;;;12.85;5.28;;;10.20;99.90;;;;;;5051443;28;20013;-80
2023/12/24 03:23:54;;;;;;;13.75;5.10;;;10.20;99.90;;;;;;5053885;28;20030;-80
2023/12/24 03:26:23;;;;;;;9.77;4.75;;;10.20;99.90;;;;;;5055598;28;20029;-80
2023/12/24 03:28:51;;;;;;;8.02;4.47;;;10.20;99.90;;;;;;5052354;28;20375;-79
2023/12/24 03:31:17;;;;;;;9.82;4.00;;;10.20;99.90;;;;;;5055462;28;20068;-80
2023/12/24 03:33:43;;;;;;;12.68;4.75;;;10.20;99.90;;;;;;5055709;28;20051;-81
2023/12/24 03:36:09;;;;;;;9.50;3.70;;;10.20;99.90;;;;;;5056467;28;20026;-78
2023/12/24 03:38:35;;;;;;;8.75;3.13;;;10.30;99.90;;;;;;5055609;28;20029;-78
2023/12/24 03:41:01;;;;;;;6.70;3.30;;;10.30;99.90;;;;;;5052175;28;20537;-79
2023/12/24 03:43:27;;;;;;;7.32;2.83;;;10.30;99.90;;;;;;5052412;28;20123;-79
2023/12/24 03:45:53;;;;;;;7.22;3.75;;;10.30;99.90;;;;;;5056141;28;20013;-78
2023/12/24 03:48:18;;;;;;;5.65;2.97;;;10.30;99.90;;;;;;5055114;28;20069;-80
2023/12/24 03:50:44;;;;;;;6.43;2.95;;;10.30;99.90;;;;;;5053325;28;20017;-78
2023/12/24 03:53:10;;;;;;;8.70;3.22;;;10.30;99.90;;;;;;5053528;28;20072;-79
2023/12/24 03:55:35;;;;;;;5.80;2.92;;;10.30;99.90;;;;;;5053563;28;20060;-80
2023/12/24 03:58:01;;;;;;;4.38;2.90;;;10.30;99.90;;;;;;5054595;28;20029;-78
2023/12/24 04:00:26;;;;;;;5.38;2.38;;;10.30;99.90;;;;;;5050877;28;20034;-78
2023/12/24 04:02:54;;;;;;;5.18;2.80;;;10.40;99.90;;;;;;5050826;28;20378;-79
2023/12/24 04:05:20;;;;;;;2.42;1.80;;;10.30;99.90;;;;;;5053428;28;20033;-78
2023/12/24 04:07:46;;;;;;;3.10;1.40;;;10.30;99.90;;;;;;5032928;28;20049;-78
2023/12/24 04:10:12;;;;;;;3.65;1.30;;;10.40;99.90;;;;;;5031922;28;20033;-79
2023/12/24 04:12:38;;;;;;;3.13;1.20;;;10.40;99.90;;;;;;5047792;28;20033;-78
2023/12/24 04:15:08;;;;;;;3.17;1.13;;;10.40;99.90;;;;;;5041285;28;20113;-79
2023/12/24 04:17:34;;;;;;;4.60;0.98;;;10.40;99.90;;;;;;5043338;28;20037;-78
2023/12/24 04:20:02;;;;;;;2.75;0.88;;;10.40;99.90;;;;;;5043277;28;20117;-79
2023/12/24 04:22:28;;;;;;;2.83;0.95;;;10.40;99.90;;;;;;5044077;28;20067;-78
2023/12/24 04:24:54;;;;;;;2.33;0.57;;;10.40;99.90;;;;;;5046123;28;20394;-77
2023/12/24 04:27:20;;;;;;;2.67;0.63;;;10.40;99.90;;;;;;5041009;28;20037;-79
2023/12/24 04:29:45;;;;;;;1.55;0.40;;;10.40;99.90;;;;;;5043015;28;20025;-78
2023/12/24 04:32:12;;;;;;;0.90;0.30;;;10.40;99.90;;;;;;5048047;28;20091;-79
2023/12/24 04:34:38;;;;;;;1.38;0.47;;;10.40;99.90;;;;;;5048294;28;20045;-79
2023/12/24 04:37:04;;;;;;;1.17;0.40;;;10.40;99.90;;;;;;5051080;28;20030;-78
2023/12/24 04:39:30;;;;;;;0.63;0.20;;;10.40;99.90;;;;;;5051405;28;20029;-79
2023/12/24 04:41:56;;;;;;;1.25;0.50;;;10.40;99.90;;;;;;5053035;28;20037;-79
2023/12/24 04:44:21;;;;;;;0.80;0.52;;;10.40;99.90;;;;;;5054594;28;20030;-78
2023/12/24 04:46:47;;;;;;;1.77;0.70;;;10.50;99.90;;;;;;5051352;28;20045;-79
2023/12/24 04:49:13;;;;;;;1.60;0.50;;;10.50;99.90;;;;;;5054754;28;20085;-78
2023/12/24 04:51:41;;;;;;;1.40;0.50;;;10.50;99.90;;;;;;5051784;28;20021;-78
2023/12/24 04:54:07;;;;;;;0.50;0.40;;;10.50;99.90;;;;;;5051647;28;20364;-80
2023/12/24 04:56:32;;;;;;;3.08;0.63;;;10.50;99.90;;;;;;5050131;28;20037;-78
2023/12/24 04:58:59;;;;;;;1.38;0.50;;;10.50;99.90;;;;;;5047879;28;20025;-79
2023/12/24 05:01:25;;;;;;;0.80;0.47;;;10.50;99.90;;;;;;5039344;28;20029;-79
2023/12/24 05:03:51;;;;;;;0.93;0.40;;;10.50;99.90;;;;;;5038632;28;20080;-79
2023/12/24 05:06:16;;;;;;;1.30;0.60;;;10.50;99.90;;;;;;5035322;28;20159;-79
2023/12/24 05:08:42;;;;;;;1.00;0.50;;;10.60;99.90;;;;;;5036428;28;20491;-80
2023/12/24 05:11:08;;;;;;;0.80;0.43;;;10.60;99.90;;;;;;5035678;28;20045;-79
2023/12/24 05:13:38;;;;;;;1.25;0.40;;;10.60;99.90;;;;;;5035781;28;20436;-80
2023/12/24 05:16:04;;;;;;;1.10;0.40;;;10.50;99.90;;;;;;5033899;28;20048;-80
2023/12/24 05:18:31;;;;;;;0.70;0.50;;;10.60;99.90;;;;;;5036381;28;20072;-79
2023/12/24 05:20:57;;;;;;;0.73;0.52;;;10.60;99.90;;;;;;5037348;28;20029;-78
2023/12/24 05:23:24;;;;;;;2.70;0.40;;;10.60;99.90;;;;;;5037060;28;20030;-78
2023/12/24 05:25:50;;;;;;;1.63;0.35;;;10.60;99.90;;;;;;5034320;28;20028;-78
2023/12/24 05:28:18;;;;;;;0.70;0.35;;;10.60;99.90;;;;;;5033262;28;20034;-78
2023/12/24 05:30:47;;;;;;;1.45;0.50;;;10.60;99.90;;;;;;5032275;28;20033;-77
2023/12/24 05:33:13;;;;;;;0.60;0.30;;;10.60;99.90;;;;;;5033155;28;20502;-77
2023/12/24 05:35:38;;;;;;;0.95;0.30;;;10.70;99.90;;;;;;5034123;28;20029;-76
2023/12/24 05:38:04;;;;;;;1.05;0.38;;;10.70;99.90;;;;;;5036097;28;20056;-77
2023/12/24 05:40:31;;;;;;;1.55;0.40;;;10.70;99.90;;;;;;5037129;28;20364;-77
2023/12/24 05:42:56;;;;;;;0.80;0.20;;;10.70;99.90;;;;;;5036983;28;20056;-76
2023/12/24 05:45:22;;;;;;;1.20;0.40;;;10.80;99.90;;;;;;5036050;28;20037;-77
2023/12/24 05:47:48;;;;;;;1.05;0.45;;;10.80;99.90;;;;;;5032075;28;20486;-78
2023/12/24 05:50:13;;;;;;;0.85;0.40;;;10.80;99.90;;;;;;5032625;28;20107;-77
2023/12/24 05:52:41;;;;;;;1.60;0.40;;;10.80;99.90;;;;;;5032764;28;20029;-78
2023/12/24 05:55:08;;;;;;;0.82;0.40;;;10.80;99.90;;;;;;5033144;28;20435;-78
2023/12/24 05:57:34;;;;;;;3.03;0.40;;;10.90;99.90;;;;;;5032174;28;20108;-79
2023/12/24 06:00:01;;;;;;;1.52;0.40;;;10.90;99.90;;;;;;5031518;28;20041;-79
2023/12/24 06:02:26;;;;;;;2.45;0.50;;;10.90;99.90;;;;;;5031816;28;20462;-78
2023/12/24 06:04:52;;;;;;;3.35;0.52;;;10.90;99.90;;;;;;5031583;28;20160;-79
2023/12/24 06:07:18;;;;;;;2.30;0.50;;;10.90;99.90;;;;;;5032130;28;20053;-79
2023/12/24 06:09:43;;;;;;;1.98;0.40;;;10.90;99.90;;;;;;5032606;28;20087;-78
2023/12/24 06:12:09;;;;;;;3.03;0.55;;;10.90;99.90;;;;;;5033104;28;20025;-79
2023/12/24 06:14:35;;;;;;;4.28;1.42;;;10.90;99.90;;;;;;5032083;28;20091;-78
2023/12/24 06:17:00;;;;;;;2.28;0.70;;;10.90;99.90;;;;;;5032563;28;20039;-77
2023/12/24 06:19:26;;;;;;;5.07;0.85;;;10.90;99.90;;;;;;5034017;28;20073;-77
2023/12/24 06:21:52;;;;;;;4.13;0.77;;;10.90;99.90;;;;;;5033700;28;20409;-77
2023/12/24 06:24:20;;;;;;;5.43;0.95;;;11.00;99.90;;;;;;5033790;28;20041;-73
2023/12/24 06:26:50;;;;;;;4.65;0.73;;;11.00;99.90;;;;;;5031756;28;20124;-74
2023/12/24 06:29:15;;;;;;;4.65;0.93;;;11.00;99.90;;;;;;5032153;28;20022;-74
2023/12/24 06:31:41;;;;;;;3.50;0.70;;;11.00;99.90;;;;;;5032791;28;20193;-73
2023/12/24 06:34:07;;;;;;;4.97;0.70;;;11.00;99.90;;;;;;5032349;28;20022;-74
2023/12/24 06:36:32;;;;;;;8.52;0.98;;;11.00;99.90;;;;;;5032357;28;20104;-75
2023/12/24 06:38:58;;;;;;;4.75;0.70;;;11.00;99.90;;;;;;5032449;28;20034;-75
2023/12/24 06:41:23;;;;;;;3.25;0.70;;;11.00;99.90;;;;;;5032032;28;20029;-73
2023/12/24 06:43:50;;;;;;;5.70;0.90;;;11.00;99.90;;;;;;5031309;28;20029;-75
2023/12/24 06:46:15;;;;;;;9.07;0.80;;;11.00;99.90;;;;;;5032123;28;20030;-74
2023/12/24 06:48:41;;;;;;;3.72;0.52;;;11.00;99.90;;;;;;5030806;28;20029;-76
2023/12/24 06:51:07;;;;;;;3.28;0.50;;;11.10;99.90;;;;;;5031989;28;20037;-76
2023/12/24 06:53:34;;;;;;;4.43;0.93;;;11.10;99.90;;;;;;5032222;28;20029;-72
2023/12/24 06:56:00;;;;;;;6.03;0.70;;;11.10;99.90;;;;;;5030922;28;20040;-72
2023/12/24 06:58:25;;;;;;;4.82;0.68;;;11.10;99.90;;;;;;5032249;28;20033;-72
2023/12/24 07:00:51;;;;;;;6.32;0.68;;;11.10;99.90;;;;;;5030921;28;20029;-79
2023/12/24 07:03:17;;;;;;;4.90;0.60;;;11.10;99.90;;;;;;5034086;28;20061;-77
2023/12/24 07:05:43;;;;;;;4.43;0.98;;;11.10;99.90;;;;;;5036779;28;20065;-77
2023/12/24 07:08:09;;;;;;;3.00;0.52;;;11.10;99.90;;;;;;5033744;28;20121;-75
2023/12/24 07:10:36;;;;;;;5.38;0.50;;;11.10;99.90;;;;;;5032670;28;20128;-75
2023/12/24 07:13:01;;;;;;;3.60;0.82;;;11.10;99.90;;;;;;5032309;28;20538;-74
2023/12/24 07:15:27;;;;;;;4.15;0.45;;;11.20;99.90;;;;;;5032508;28;20068;-75
2023/12/24 07:17:53;;;;;;;4.30;0.57;;;11.20;99.90;;;;;;5032395;28;20136;-75
2023/12/24 07:20:18;;;;;;;5.32;1.17;;;11.20;99.90;;;;;;5032802;28;20021;-75
2023/12/24 07:22:44;;;;;;;4.43;0.77;;;11.20;99.90;;;;;;5031130;28;20037;-76
2023/12/24 07:25:10;;;;;;;5.43;0.70;;;11.20;99.90;;;;;;5032099;28;20030;-75
2023/12/24 07:27:36;;;;;;;3.65;0.47;;;11.20;99.90;;;;;;5030760;28;20049;-76
2023/12/24 07:30:01;;;;;;;5.97;0.70;;;11.20;99.90;;;;;;5032838;28;20404;-76
2023/12/24 07:32:27;;;;;;;5.25;0.93;;;11.20;99.90;;;;;;5032752;28;20041;-75
2023/12/24 07:34:55;;;;;;;4.82;0.70;;;11.20;99.90;;;;;;5031528;28;20034;-75
2023/12/24 07:37:21;;;;;;;4.32;0.60;;;11.20;99.90;;;;;;5032371;28;20041;-75
2023/12/24 07:39:46;;;;;;;5.05;0.80;;;11.30;99.90;;;;;;5033740;28;20103;-75
2023/12/24 07:42:12;;;;;;;5.55;1.08;;;11.30;99.90;;;;;;5035698;28;20059;-76
2023/12/24 07:44:37;;;;;;;5.78;1.15;;;11.30;99.90;;;;;;5035841;28;20034;-75
2023/12/24 07:47:03;;;;;;;8.40;1.35;;;11.30;99.90;;;;;;5035828;28;20037;-76
2023/12/24 07:49:29;;;;;;;6.43;1.02;;;11.30;99.90;;;;;;5036208;28;20038;-76
2023/12/24 07:51:55;;;;;;;3.35;0.93;;;11.30;99.90;;;;;;5037797;28;20490;-77
2023/12/24 07:54:20;;;;;;;4.65;0.80;;;11.30;99.90;;;;;;5035206;28;20025;-76
2023/12/24 07:56:46;;;;;;;7.97;1.52;;;11.30;99.90;;;;;;5034481;28;20471;-75
2023/12/24 07:59:12;;;;;;;8.98;1.23;;;11.30;99.90;;;;;;5035475;28;20031;-75
2023/12/24 08:01:40;;;;;;;7.78;0.90;;;11.30;99.90;;;;;;5038017;28;20060;-77
2023/12/24 08:04:06;;;;;;;11.93;1.40;;;11.30;99.90;;;;;;5036146;28;20037;-76
2023/12/24 08:06:32;;;;;;;5.80;1.10;;;11.30;99.90;;;;;;5036204;28;20128;-74
2023/12/24 08:08:57;;;;;;;6.25;1.45;;;11.30;99.90;;;;;;5035849;28;20057;-74
2023/12/24 08:11:24;;;;;;;3.28;1.23;;;11.40;99.90;;;;;;5038087;28;20038;-75
2023/12/24 08:13:49;;;;;;;5.82;1.20;;;11.30;99.90;;;;;;5040177;28;20028;-74
2023/12/24 08:16:15;;;;;;;5.55;1.10;;;11.40;99.90;;;;;;5022068;28;20109;-73
2023/12/24 08:18:40;;;;;;;6.85;1.00;;;11.40;99.90;;;;;;5035608;28;20436;-73
2023/12/24 08:21:10;;;;;;;5.15;1.02;;;11.40;99.90;;;;;;5036082;28;20037;-73
2023/12/24 08:23:39;;;;;;;8.43;1.25;;;11.40;99.90;;;;;;5035303;28;20116;-74
2023/12/24 08:26:05;;;;;;;8.23;1.05;;;11.40;99.90;;;;;;5035471;28;20029;-76
2023/12/24 08:28:31;;;;;;;4.13;0.98;;;11.40;99.90;;;;;;5034910;28;20042;-75
2023/12/24 08:30:57;;;;;;;3.40;0.90;;;11.40;99.90;;;;;;5037054;28;20041;-76
2023/12/24 08:33:23;;;;;;;3.45;0.65;;;11.40;99.90;;;;;;5035669;28;20022;-76
2023/12/24 08:35:48;;;;;;;4.80;1.00;;;11.40;99.90;;;;;;5041678;28;20033;-80
2023/12/24 08:38:14;;;;;;;4.03;0.88;;;11.40;99.90;;;;;;5037747;28;20380;-77
2023/12/24 08:40:40;;;;;;;4.45;0.90;;;11.50;99.90;;;;;;5035134;28;20033;-76
2023/12/24 08:43:05;;;;;;;5.57;1.33;;;11.50;99.90;;;;;;5034164;28;20037;-73
2023/12/24 08:45:31;;;;;;;4.50;0.88;;;11.50;99.90;;;;;;5034906;28;20057;-76
2023/12/24 08:47:57;;;;;;;1.90;0.60;;;11.50;99.90;;;;;;5034836;28;20037;-75
2023/12/24 08:50:23;;;;;;;2.55;0.50;;;11.50;99.90;;;;;;5032496;28;20030;-74
2023/12/24 08:52:49;;;;;;;2.03;0.20;;;11.50;99.90;;;;;;5034507;28;20034;-76
2023/12/24 08:55:15;;;;;;;2.47;0.30;;;11.50;99.90;;;;;;5034594;28;20030;-77
2023/12/24 08:57:41;;;;;;;1.92;0.30;;;11.50;99.90;;;;;;5035296;28;20375;-76
2023/12/24 09:00:11;;;;;;;2.40;0.20;;;11.50;99.90;;;;;;5034513;28;20037;-74
2023/12/24 09:02:38;;;;;;;2.97;0.20;;;11.50;99.90;;;;;;5034442;28;20029;-76
2023/12/24 09:05:06;;;;;;;1.73;0.20;;;11.50;99.90;;;;;;5042788;28;20040;-78
2023/12/24 09:07:33;;;;;;;2.35;0.50;;;11.60;99.90;;;;;;5034433;28;20053;-75
2023/12/24 09:09:58;;;;;;;2.20;0.20;;;11.60;99.90;;;;;;5033451;28;20175;-76
2023/12/24 09:12:24;;;;;;;2.63;0.20;;;11.50;99.90;;;;;;5034265;28;20030;-74
2023/12/24 09:14:50;;;;;;;1.58;0.10;;;11.60;99.90;;;;;;5034524;28;20487;-75
2023/12/24 09:17:15;;;;;;;1.77;0.20;;;11.60;99.90;;;;;;5034166;28;20033;-73
2023/12/24 09:19:41;;;;;;;1.30;0.22;;;11.60;99.90;;;;;;5017072;28;20031;-74
2023/12/24 09:22:06;;;;;;;2.00;0.20;;;11.60;99.90;;;;;;5032823;28;20525;-73
2023/12/24 09:24:32;;;;;;;2.80;0.22;;;11.60;99.90;;;;;;5034333;28;20071;-72
2023/12/24 09:26:58;;;;;;;1.25;0.30;;;11.60;99.90;;;;;;5034060;28;20464;-74
2023/12/24 09:29:24;;;;;;;2.38;0.28;;;11.60;99.90;;;;;;5034588;28;20418;-73
2023/12/24 09:31:49;;;;;;;1.92;0.30;;;11.60;99.90;;;;;;5033829;28;20146;-74
2023/12/24 09:34:15;;;;;;;1.38;0.28;;;11.60;99.90;;;;;;5033565;28;20487;-76
2023/12/24 09:36:41;;;;;;;2.30;0.30;;;11.60;99.90;;;;;;5033908;28;20034;-75
2023/12/24 09:39:06;;;;;;;3.55;0.30;;;11.60;99.90;;;;;;5033774;28;20483;-74
2023/12/24 09:41:32;;;;;;;2.88;0.38;;;11.60;99.90;;;;;;5033776;28;20030;-75
2023/12/24 09:43:58;;;;;;;3.88;0.38;;;11.70;99.90;;;;;;5033715;28;20049;-75
2023/12/24 09:46:24;;;;;;;5.22;0.50;;;11.70;99.90;;;;;;5033726;28;20362;-76
2023/12/24 09:48:50;;;;;;;6.63;0.75;;;11.70;99.90;;;;;;5033953;28;20108;-76
2023/12/24 09:51:16;;;;;;;3.95;0.73;;;11.70;99.90;;;;;;5032580;28;20025;-77
2023/12/24 09:53:45;;;;;;;5.03;0.60;;;11.70;99.90;;;;;;5033957;28;20348;-75
2023/12/24 09:56:11;;;;;;;5.53;1.00;;;11.70;99.90;;;;;;5032103;28;20488;-74
2023/12/24 09:58:36;;;;;;;6.70;0.80;;;11.70;99.90;;;;;;5033647;28;20042;-76
2023/12/24 10:01:02;;;;;;;9.40;1.40;;;11.80;99.90;;;;;;5033476;28;20030;-74
2023/12/24 10:03:28;;;;;;;10.40;1.58;;;11.80;99.90;;;;;;5035628;28;20108;-76
2023/12/24 10:06:14;;;;;;;12.93;2.20;;;11.80;99.90;;;;;;5034954;28;20036;-77
2023/12/24 10:08:40;;;;;;;10.02;1.50;;;11.80;99.90;;;;;;5035011;28;20124;-75
2023/12/24 10:11:20;;;;;;;12.73;1.92;;;11.80;99.90;;;;;;5038229;28;20092;-78
2023/12/24 10:13:47;;;;;;;15.80;2.55;;;11.80;99.90;;;;;;5037504;28;20418;-75
2023/12/24 10:16:13;;;;;;;16.65;2.70;;;11.80;99.90;;;;;;5033188;28;20030;-76
2023/12/24 10:18:50;;;;;;;20.58;2.22;;;11.80;99.90;;;;;;5033429;28;20036;-76
2023/12/24 10:21:16;;;;;;;19.83;2.95;;;11.80;99.90;;;;;;5032737;28;20033;-77
2023/12/24 10:23:42;;;;;;;24.38;3.97;;;11.90;99.90;;;;;;5034229;28;20116;-77
2023/12/24 10:26:11;;;;;;;26.52;4.65;;;11.90;99.90;;;;;;5039318;28;20072;-77
2023/12/24 10:28:49;;;;;;;37.72;4.65;;;11.90;99.90;;;;;;5033474;28;20041;-75
2023/12/24 10:31:16;;;;;;;34.45;5.80;;;11.90;99.90;;;;;;5033429;28;20037;-75
2023/12/24 10:33:41;;;;;;;32.47;4.97;;;11.90;99.90;;;;;;5031849;28;20589;-77
2023/12/24 10:36:08;;;;;;;28.23;4.65;;;12.00;99.90;;;;;;5033083;28;20029;-75
2023/12/24 10:38:35;;;;;;;36.30;5.20;;;12.00;99.90;;;;;;5033310;28;20042;-74
2023/12/24 10:41:01;;;;;;;30.50;4.60;;;12.00;99.90;;;;;;5032710;28;20578;-73
2023/12/24 10:43:28;;;;;;;38.58;4.68;;;12.00;99.90;;;;;;5032820;28;20144;-74
2023/12/24 10:45:53;;;;;;;33.50;6.20;;;12.00;99.90;;;;;;5032159;28;20047;-75
2023/12/24 10:48:19;;;;;;;31.55;4.68;;;12.00;99.90;;;;;;5035683;28;20144;-77
2023/12/24 10:50:45;;;;;;;31.42;6.35;;;12.00;99.90;;;;;;5038216;28;20092;-77
2023/12/24 10:53:13;;;;;;;25.40;4.45;;;12.10;99.90;;;;;;5034973;28;20408;-76
2023/12/24 10:55:41;;;;;;;31.35;4.03;;;12.10;99.90;;;;;;5033757;28;20038;-82
2023/12/24 10:58:17;;;;;;;27.83;4.05;;;12.10;99.90;;;;;;5034832;28;20099;-78
2023/12/24 11:00:43;;;;;;;28.58;4.03;;;12.10;99.90;;;;;;5033418;28;20099;-74
2023/12/24 11:03:09;;;;;;;30.88;4.28;;;12.20;99.90;;;;;;5034188;28;20464;-76
2023/12/24 11:05:45;;;;;;;28.13;4.18;;;12.20;99.90;;;;;;5034822;28;20029;-78
2023/12/24 11:08:19;;;;;;;30.40;3.95;;;12.20;99.90;;;;;;5033581;28;20045;-80
2023/12/24 11:10:55;;;;;;;24.02;3.88;;;12.20;99.90;;;;;;5033065;28;20460;-76
2023/12/24 11:13:31;;;;;;;24.40;3.72;;;12.20;99.90;;;;;;5032097;28;20029;-75
2023/12/24 11:15:57;;;;;;;25.33;4.05;;;12.30;99.90;;;;;;5036299;28;20536;-77
2023/12/24 11:18:48;;;;;;;24.60;4.00;;;12.20;99.90;;;;;;5035382;28;20064;-74
2023/12/24 11:21:15;;;;;;;25.63;4.30;;;12.30;99.90;;;;;;5036574;28;20029;-76
2023/12/24 11:24:02;;;;;;;16.20;3.10;;;12.30;99.90;;;;;;5019040;28;20421;-75
2023/12/24 11:26:31;;;;;;;24.98;4.35;;;12.30;99.90;;;;;;5034599;28;20376;-75
2023/12/24 11:29:20;;;;;;;24.05;3.55;;;12.30;99.90;;;;;;5036143;28;20487;-73
2023/12/24 11:31:46;;;;;;;20.45;3.33;;;12.30;99.90;;;;;;5044999;28;20041;-78
2023/12/24 11:34:31;;;;;;;17.73;3.28;;;12.30;99.90;;;;;;5037579;28;20540;-76
2023/12/24 11:37:03;;;;;;;15.15;2.97;;;12.40;99.90;;;;;;5036999;28;20038;-75
2023/12/24 11:40:04;;;;;;;16.50;2.90;;;12.40;99.90;;;;;;5038677;28;20029;-79
2023/12/24 11:42:46;;;;;;;14.18;2.83;;;12.40;99.90;;;;;;5045522;28;20030;-77
2023/12/24 11:45:30;;;;;;;19.63;3.60;;;12.30;99.90;;;;;;5042894;28;20021;-78
2023/12/24 11:47:56;;;;;;;12.48;2.63;;;12.40;99.90;;;;;;5038004;28;20371;-78
2023/12/24 11:50:22;;;;;;;11.85;2.95;;;12.40;99.90;;;;;;5037808;28;20025;-77
2023/12/24 11:52:49;;;;;;;15.00;2.65;;;12.40;99.90;;;;;;5039506;28;20036;-77
2023/12/24 11:55:19;;;;;;;13.07;2.95;;;12.40;99.90;;;;;;5043827;28;20041;-78
2023/12/24 11:57:45;;;;;;;15.43;3.53;;;12.40;99.90;;;;;;5040618;28;20029;-78
2023/12/24 12:00:23;;;;;;;8.50;2.67;;;12.40;99.90;;;;;;5040426;28;20080;-76
2023/12/24 12:02:59;;;;;;;8.20;2.70;;;12.40;99.90;;;;;;5036145;28;20444;-74
2023/12/24 12:05:25;;;;;;;5.05;2.35;;;12.40;99.90;;;;;;5035741;28;20107;-75
2023/12/24 12:07:52;;;;;;;9.63;3.33;;;12.40;99.90;;;;;;5038364;28;20084;-77
2023/12/24 12:10:18;;;;;;;8.30;3.08;;;12.40;99.90;;;;;;5044804;28;20108;-78
2023/12/24 12:12:44;;;;;;;8.50;3.00;;;12.40;99.90;;;;;;5049969;28;20427;-79
2023/12/24 12:15:10;;;;;;;7.28;3.10;;;12.40;99.90;;;;;;5046942;28;20029;-77
2023/12/24 12:17:36;;;;;;;8.73;3.40;;;12.40;99.90;;;;;;5050446;28;20033;-79
2023/12/24 12:20:03;;;;;;;12.00;4.05;;;12.40;99.90;;;;;;5051542;28;20084;-78
2023/12/24 12:22:29;;;;;;;7.35;2.78;;;12.40;99.90;;;;;;5029906;28;20432;-78
2023/12/24 12:24:55;;;;;;;6.95;3.00;;;12.40;99.90;;;;;;5045438;28;20033;-74
2023/12/24 12:27:20;;;;;;;7.30;2.95;;;12.40;99.90;;;;;;5017876;28;20033;-76
2023/12/24 12:29:46;;;;;;;5.35;2.70;;;12.40;99.90;;;;;;5035103;28;20036;-74
2023/12/24 12:32:11;;;;;;;6.47;2.40;;;12.50;99.90;;;;;;5033781;28;20565;-74
2023/12/24 12:34:38;;;;;;;2.70;2.05;;;12.50;99.90;;;;;;5033990;28;20037;-74
2023/12/24 12:37:04;;;;;;;7.60;2.63;;;12.40;99.90;;;;;;5035365;28;20379;-74
2023/12/24 12:39:30;;;;;;;5.85;2.22;;;12.50;99.90;;;;;;5034929;28;20025;-75
2023/12/24 12:41:57;;;;;;;7.22;2.50;;;12.50;99.90;;;;;;5034314;28;20108;-80
2023/12/24 12:44:23;;;;;;;7.30;2.40;;;12.50;99.90;;;;;;5035035;28;20025;-77